Terminal Aerodrome Forecast
Issued by NWS Spokane, WA

Home | Current Version | Previous Version | Text Only | Print | Product List | Glossary On
Versions: 1 2 3 4 5 6 7 8 9 10 11 12 13 14 15 16 17 18 19 20 21 22 23 24 25 26 27
000
FTUS46 KOTX 050642 AAA
TAFEAT
TAF AMD
KEAT 050642Z 0507/0606 33006KT P6SM -SHRA BKN090 OVC110
     FM050830 31011KT P6SM SCT070 BKN100 BKN200
     FM052000 30008KT P6SM VCSH SCT070 BKN120
     FM052300 30010KT P6SM -SHRA VCTS SCT070CB BKN120=

USA.gov is the U.S. government's official web portal to all federal, state and local government web resources and services.